sensor_id;sensor_type;location;lat;lon;timestamp;temperature;humidity
3256;DHT22;1640;48.504;9.224;2023-08-20T00:02:10;22.00;99.90
3256;DHT22;1640;48.504;9.224;2023-08-20T00:04:39;22.00;99.90
3256;DHT22;1640;48.504;9.224;2023-08-20T00:07:09;22.00;99.90
3256;DHT22;1640;48.504;9.224;2023-08-20T00:09:36;22.00;99.90
3256;DHT22;1640;48.504;9.224;2023-08-20T00:12:04;22.00;99.90
3256;DHT22;1640;48.504;9.224;2023-08-20T00:14:53;22.00;99.90
3256;DHT22;1640;48.504;9.224;2023-08-20T00:17:22;22.00;99.90
3256;DHT22;1640;48.504;9.224;2023-08-20T00:19:53;22.00;99.90
3256;DHT22;1640;48.504;9.224;2023-08-20T00:22:24;21.90;99.90
3256;DHT22;1640;48.504;9.224;2023-08-20T00:24:53;21.90;99.90
3256;DHT22;1640;48.504;9.224;2023-08-20T00:27:21;21.90;99.90
3256;DHT22;1640;48.504;9.224;2023-08-20T00:29:48;21.80;99.90
3256;DHT22;1640;48.504;9.224;2023-08-20T00:32:16;21.80;99.90
3256;DHT22;1640;48.504;9.224;2023-08-20T00:34:44;21.80;99.90
3256;DHT22;1640;48.504;9.224;2023-08-20T00:37:11;21.80;99.90
3256;DHT22;1640;48.504;9.224;2023-08-20T00:39:40;21.70;99.90
3256;DHT22;1640;48.504;9.224;2023-08-20T00:42:08;21.70;99.90
3256;DHT22;1640;48.504;9.224;2023-08-20T00:44:35;21.70;99.90
3256;DHT22;1640;48.504;9.224;2023-08-20T00:47:04;21.70;99.90
3256;DHT22;1640;48.504;9.224;2023-08-20T00:49:32;21.70;99.90
3256;DHT22;1640;48.504;9.224;2023-08-20T00:51:59;21.60;99.90
3256;DHT22;1640;48.504;9.224;2023-08-20T00:54:29;21.60;99.90
3256;DHT22;1640;48.504;9.224;2023-08-20T00:56:59;21.60;99.90
3256;DHT22;1640;48.504;9.224;2023-08-20T00:59:26;21.70;99.90
3256;DHT22;1640;48.504;9.224;2023-08-20T01:01:54;21.70;99.90
3256;DHT22;1640;48.504;9.224;2023-08-20T01:04:21;21.70;99.90
3256;DHT22;1640;48.504;9.224;2023-08-20T01:06:53;21.70;99.90
3256;DHT22;1640;48.504;9.224;2023-08-20T01:09:29;21.70;99.90
3256;DHT22;1640;48.504;9.224;2023-08-20T01:12:03;21.80;99.90
3256;DHT22;1640;48.504;9.224;2023-08-20T01:14:30;21.70;99.90
3256;DHT22;1640;48.504;9.224;2023-08-20T01:16:58;21.60;99.90
3256;DHT22;1640;48.504;9.224;2023-08-20T01:19:26;21.60;99.90
3256;DHT22;1640;48.504;9.224;2023-08-20T01:22:18;21.50;99.90
3256;DHT22;1640;48.504;9.224;2023-08-20T01:24:57;21.50;99.90
3256;DHT22;1640;48.504;9.224;2023-08-20T01:27:38;21.40;99.90
3256;DHT22;1640;48.504;9.224;2023-08-20T01:30:13;21.30;99.90
3256;DHT22;1640;48.504;9.224;2023-08-20T01:32:41;21.30;99.90
3256;DHT22;1640;48.504;9.224;2023-08-20T01:35:11;21.20;99.90
3256;DHT22;1640;48.504;9.224;2023-08-20T01:37:40;21.20;99.90
3256;DHT22;1640;48.504;9.224;2023-08-20T01:40:08;21.20;99.90
3256;DHT22;1640;48.504;9.224;2023-08-20T01:42:37;21.20;99.90
3256;DHT22;1640;48.504;9.224;2023-08-20T01:45:06;21.20;99.90
3256;DHT22;1640;48.504;9.224;2023-08-20T01:47:35;21.20;99.90
3256;DHT22;1640;48.504;9.224;2023-08-20T01:50:03;21.20;99.90
3256;DHT22;1640;48.504;9.224;2023-08-20T01:52:30;21.20;99.90
3256;DHT22;1640;48.504;9.224;2023-08-20T01:54:58;21.20;99.90
3256;DHT22;1640;48.504;9.224;2023-08-20T01:57:25;21.20;99.90
3256;DHT22;1640;48.504;9.224;2023-08-20T01:59:53;21.20;99.90
3256;DHT22;1640;48.504;9.224;2023-08-20T02:02:20;21.10;99.90
3256;DHT22;1640;48.504;9.224;2023-08-20T02:04:49;21.10;99.90
3256;DHT22;1640;48.504;9.224;2023-08-20T02:07:17;21.10;99.90
3256;DHT22;1640;48.504;9.224;2023-08-20T02:09:44;21.10;99.90
3256;DHT22;1640;48.504;9.224;2023-08-20T02:12:12;21.00;99.90
3256;DHT22;1640;48.504;9.224;2023-08-20T02:14:39;21.00;99.90
3256;DHT22;1640;48.504;9.224;2023-08-20T02:17:07;21.00;99.90
3256;DHT22;1640;48.504;9.224;2023-08-20T02:19:35;21.00;99.90
3256;DHT22;1640;48.504;9.224;2023-08-20T02:22:04;20.90;99.90
3256;DHT22;1640;48.504;9.224;2023-08-20T02:24:31;20.90;99.90
3256;DHT22;1640;48.504;9.224;2023-08-20T02:26:59;20.80;99.90
3256;DHT22;1640;48.504;9.224;2023-08-20T02:29:26;20.80;99.90
3256;DHT22;1640;48.504;9.224;2023-08-20T02:31:54;20.80;99.90
3256;DHT22;1640;48.504;9.224;2023-08-20T02:34:22;20.80;99.90
3256;DHT22;1640;48.504;9.224;2023-08-20T02:36:49;20.80;99.90
3256;DHT22;1640;48.504;9.224;2023-08-20T02:39:20;20.80;99.90
3256;DHT22;1640;48.504;9.224;2023-08-20T02:41:47;20.80;99.90
3256;DHT22;1640;48.504;9.224;2023-08-20T02:44:15;20.80;99.90
3256;DHT22;1640;48.504;9.224;2023-08-20T02:46:42;20.80;99.90
3256;DHT22;1640;48.504;9.224;2023-08-20T02:49:10;20.80;99.90
3256;DHT22;1640;48.504;9.224;2023-08-20T02:51:38;20.70;99.90
3256;DHT22;1640;48.504;9.224;2023-08-20T02:54:07;20.70;99.90
3256;DHT22;1640;48.504;9.224;2023-08-20T02:56:36;20.70;99.90
3256;DHT22;1640;48.504;9.224;2023-08-20T02:59:04;20.70;99.90
3256;DHT22;1640;48.504;9.224;2023-08-20T03:01:31;20.60;99.90
3256;DHT22;1640;48.504;9.224;2023-08-20T03:03:59;20.60;99.90
3256;DHT22;1640;48.504;9.224;2023-08-20T03:06:26;20.60;99.90
3256;DHT22;1640;48.504;9.224;2023-08-20T03:08:54;20.60;99.90
3256;DHT22;1640;48.504;9.224;2023-08-20T03:11:21;20.60;99.90
3256;DHT22;1640;48.504;9.224;2023-08-20T03:13:50;20.70;99.90
3256;DHT22;1640;48.504;9.224;2023-08-20T03:16:17;20.60;99.90
3256;DHT22;1640;48.504;9.224;2023-08-20T03:18:45;20.60;99.90
3256;DHT22;1640;48.504;9.224;2023-08-20T03:21:12;20.50;99.90
3256;DHT22;1640;48.504;9.224;2023-08-20T03:23:40;20.50;99.90
3256;DHT22;1640;48.504;9.224;2023-08-20T03:26:07;20.40;99.90
3256;DHT22;1640;48.504;9.224;2023-08-20T03:28:35;20.30;99.90
3256;DHT22;1640;48.504;9.224;2023-08-20T03:31:03;20.30;99.90
3256;DHT22;1640;48.504;9.224;2023-08-20T03:33:31;20.30;99.90
3256;DHT22;1640;48.504;9.224;2023-08-20T03:35:58;20.30;99.90
3256;DHT22;1640;48.504;9.224;2023-08-20T03:38:26;20.30;99.90
3256;DHT22;1640;48.504;9.224;2023-08-20T03:40:55;20.40;99.90
3256;DHT22;1640;48.504;9.224;2023-08-20T03:43:22;20.40;99.90
3256;DHT22;1640;48.504;9.224;2023-08-20T03:45:50;20.40;99.90
3256;DHT22;1640;48.504;9.224;2023-08-20T03:48:19;20.40;99.90
3256;DHT22;1640;48.504;9.224;2023-08-20T03:50:47;20.40;99.90
3256;DHT22;1640;48.504;9.224;2023-08-20T03:53:15;20.30;99.90
3256;DHT22;1640;48.504;9.224;2023-08-20T03:55:47;20.30;99.90
3256;DHT22;1640;48.504;9.224;2023-08-20T03:58:15;20.20;99.90
3256;DHT22;1640;48.504;9.224;2023-08-20T04:00:43;20.20;99.90
3256;DHT22;1640;48.504;9.224;2023-08-20T04:03:10;20.20;99.90
3256;DHT22;1640;48.504;9.224;2023-08-20T04:05:39;20.20;99.90
3256;DHT22;1640;48.504;9.224;2023-08-20T04:08:07;20.20;99.90
3256;DHT22;1640;48.504;9.224;2023-08-20T04:10:34;20.20;99.90
3256;DHT22;1640;48.504;9.224;2023-08-20T04:13:02;20.20;99.90
3256;DHT22;1640;48.504;9.224;2023-08-20T04:15:29;20.20;99.90
3256;DHT22;1640;48.504;9.224;2023-08-20T04:17:57;20.20;99.90
3256;DHT22;1640;48.504;9.224;2023-08-20T04:20:24;20.20;99.90
3256;DHT22;1640;48.504;9.224;2023-08-20T04:22:53;20.10;99.90
3256;DHT22;1640;48.504;9.224;2023-08-20T04:25:20;20.10;99.90
3256;DHT22;1640;48.504;9.224;2023-08-20T04:27:48;20.10;99.90
3256;DHT22;1640;48.504;9.224;2023-08-20T04:30:15;20.10;99.90
3256;DHT22;1640;48.504;9.224;2023-08-20T04:32:43;20.00;99.90
3256;DHT22;1640;48.504;9.224;2023-08-20T04:35:10;20.00;99.90
3256;DHT22;1640;48.504;9.224;2023-08-20T04:37:38;20.00;99.90
3256;DHT22;1640;48.504;9.224;2023-08-20T04:40:08;20.00;99.90
3256;DHT22;1640;48.504;9.224;2023-08-20T04:42:36;20.00;99.90
3256;DHT22;1640;48.504;9.224;2023-08-20T04:45:04;20.10;99.90
3256;DHT22;1640;48.504;9.224;2023-08-20T04:47:32;20.10;99.90
3256;DHT22;1640;48.504;9.224;2023-08-20T04:50:00;20.20;99.90
3256;DHT22;1640;48.504;9.224;2023-08-20T04:52:27;20.20;99.90
3256;DHT22;1640;48.504;9.224;2023-08-20T04:54:55;20.20;99.90
3256;DHT22;1640;48.504;9.224;2023-08-20T04:57:24;20.20;99.90
3256;DHT22;1640;48.504;9.224;2023-08-20T04:59:51;20.30;99.90
3256;DHT22;1640;48.504;9.224;2023-08-20T05:02:19;20.30;99.90
3256;DHT22;1640;48.504;9.224;2023-08-20T05:04:46;20.40;99.90
3256;DHT22;1640;48.504;9.224;2023-08-20T05:07:13;20.40;99.90
3256;DHT22;1640;48.504;9.224;2023-08-20T05:09:41;20.40;99.90
3256;DHT22;1640;48.504;9.224;2023-08-20T05:12:09;20.50;99.90
3256;DHT22;1640;48.504;9.224;2023-08-20T05:14:37;20.50;99.90
3256;DHT22;1640;48.504;9.224;2023-08-20T05:17:05;20.60;99.90
3256;DHT22;1640;48.504;9.224;2023-08-20T05:19:32;20.60;99.90
3256;DHT22;1640;48.504;9.224;2023-08-20T05:22:00;20.60;99.90
3256;DHT22;1640;48.504;9.224;2023-08-20T05:24:27;20.70;99.90
3256;DHT22;1640;48.504;9.224;2023-08-20T05:27:05;20.70;99.90
3256;DHT22;1640;48.504;9.224;2023-08-20T05:29:33;20.80;99.90
3256;DHT22;1640;48.504;9.224;2023-08-20T05:32:02;20.80;99.90
3256;DHT22;1640;48.504;9.224;2023-08-20T05:34:29;20.90;99.90
3256;DHT22;1640;48.504;9.224;2023-08-20T05:36:57;21.00;99.90
3256;DHT22;1640;48.504;9.224;2023-08-20T05:39:24;21.00;99.90
3256;DHT22;1640;48.504;9.224;2023-08-20T05:41:52;20.90;99.90
3256;DHT22;1640;48.504;9.224;2023-08-20T05:44:20;20.90;99.90
3256;DHT22;1640;48.504;9.224;2023-08-20T05:46:48;20.80;99.90
3256;DHT22;1640;48.504;9.224;2023-08-20T05:49:17;20.90;99.90
3256;DHT22;1640;48.504;9.224;2023-08-20T05:51:44;20.90;99.90
3256;DHT22;1640;48.504;9.224;2023-08-20T05:54:12;20.90;99.90
3256;DHT22;1640;48.504;9.224;2023-08-20T05:56:39;20.90;99.90
3256;DHT22;1640;48.504;9.224;2023-08-20T05:59:07;21.00;99.90
3256;DHT22;1640;48.504;9.224;2023-08-20T06:01:34;21.10;99.90
3256;DHT22;1640;48.504;9.224;2023-08-20T06:04:01;21.20;99.90
3256;DHT22;1640;48.504;9.224;2023-08-20T06:06:30;21.30;99.90
3256;DHT22;1640;48.504;9.224;2023-08-20T06:08:58;21.30;99.90
3256;DHT22;1640;48.504;9.224;2023-08-20T06:11:25;21.40;99.90
3256;DHT22;1640;48.504;9.224;2023-08-20T06:13:53;21.50;99.90
3256;DHT22;1640;48.504;9.224;2023-08-20T06:16:20;21.70;99.90
3256;DHT22;1640;48.504;9.224;2023-08-20T06:18:48;21.70;99.90
3256;DHT22;1640;48.504;9.224;2023-08-20T06:21:15;21.90;99.90
3256;DHT22;1640;48.504;9.224;2023-08-20T06:23:44;22.00;99.90
3256;DHT22;1640;48.504;9.224;2023-08-20T06:26:12;22.20;99.90
3256;DHT22;1640;48.504;9.224;2023-08-20T06:28:39;22.30;99.90
3256;DHT22;1640;48.504;9.224;2023-08-20T06:31:07;22.30;99.90
3256;DHT22;1640;48.504;9.224;2023-08-20T06:33:34;22.40;99.90
3256;DHT22;1640;48.504;9.224;2023-08-20T06:36:02;22.50;99.90
3256;DHT22;1640;48.504;9.224;2023-08-20T06:38:30;22.50;99.90
3256;DHT22;1640;48.504;9.224;2023-08-20T06:40:59;22.50;99.90
3256;DHT22;1640;48.504;9.224;2023-08-20T06:43:27;22.60;99.90
3256;DHT22;1640;48.504;9.224;2023-08-20T06:45:54;22.60;99.90
3256;DHT22;1640;48.504;9.224;2023-08-20T06:48:22;22.80;99.90
3256;DHT22;1640;48.504;9.224;2023-08-20T06:50:50;22.80;99.90
3256;DHT22;1640;48.504;9.224;2023-08-20T06:53:18;23.00;99.90
3256;DHT22;1640;48.504;9.224;2023-08-20T06:55:45;23.10;99.90
3256;DHT22;1640;48.504;9.224;2023-08-20T06:58:14;23.10;99.90
3256;DHT22;1640;48.504;9.224;2023-08-20T07:00:42;23.20;99.90
3256;DHT22;1640;48.504;9.224;2023-08-20T07:03:09;23.20;99.90
3256;DHT22;1640;48.504;9.224;2023-08-20T07:05:37;23.30;99.90
3256;DHT22;1640;48.504;9.224;2023-08-20T07:08:04;23.50;99.90
3256;DHT22;1640;48.504;9.224;2023-08-20T07:10:32;23.70;99.90
3256;DHT22;1640;48.504;9.224;2023-08-20T07:12:59;23.70;99.90
3256;DHT22;1640;48.504;9.224;2023-08-20T07:15:29;23.80;99.90
3256;DHT22;1640;48.504;9.224;2023-08-20T07:17:57;24.00;99.90
3256;DHT22;1640;48.504;9.224;2023-08-20T07:20:24;24.10;99.90
3256;DHT22;1640;48.504;9.224;2023-08-20T07:22:51;24.20;99.90
3256;DHT22;1640;48.504;9.224;2023-08-20T07:25:19;24.20;99.90
3256;DHT22;1640;48.504;9.224;2023-08-20T07:27:47;24.20;99.90
3256;DHT22;1640;48.504;9.224;2023-08-20T07:30:14;24.20;99.90
3256;DHT22;1640;48.504;9.224;2023-08-20T07:32:43;24.30;99.90
3256;DHT22;1640;48.504;9.224;2023-08-20T07:35:10;24.50;3.10
3256;DHT22;1640;48.504;9.224;2023-08-20T07:37:38;24.60;5.30
3256;DHT22;1640;48.504;9.224;2023-08-20T07:40:06;24.60;3.50
3256;DHT22;1640;48.504;9.224;2023-08-20T07:42:34;24.60;4.10
3256;DHT22;1640;48.504;9.224;2023-08-20T07:45:03;24.70;3.30
3256;DHT22;1640;48.504;9.224;2023-08-20T07:47:30;24.70;6.40
3256;DHT22;1640;48.504;9.224;2023-08-20T07:49:59;24.70;0.90
3256;DHT22;1640;48.504;9.224;2023-08-20T07:52:27;24.70;6.20
3256;DHT22;1640;48.504;9.224;2023-08-20T07:54:54;24.80;1.80
3256;DHT22;1640;48.504;9.224;2023-08-20T07:57:22;24.80;2.50
3256;DHT22;1640;48.504;9.224;2023-08-20T07:59:49;24.80;3.20
3256;DHT22;1640;48.504;9.224;2023-08-20T08:02:17;24.90;3.30
3256;DHT22;1640;48.504;9.224;2023-08-20T08:04:44;25.00;5.00
3256;DHT22;1640;48.504;9.224;2023-08-20T08:07:13;25.20;10.30
3256;DHT22;1640;48.504;9.224;2023-08-20T08:09:41;25.30;9.90
3256;DHT22;1640;48.504;9.224;2023-08-20T08:12:09;25.40;12.30
3256;DHT22;1640;48.504;9.224;2023-08-20T08:14:36;25.60;13.30
3256;DHT22;1640;48.504;9.224;2023-08-20T08:17:03;25.70;13.80
3256;DHT22;1640;48.504;9.224;2023-08-20T08:19:31;25.90;18.30
3256;DHT22;1640;48.504;9.224;2023-08-20T08:22:00;26.00;20.70
3256;DHT22;1640;48.504;9.224;2023-08-20T08:24:29;26.00;20.20
3256;DHT22;1640;48.504;9.224;2023-08-20T08:26:56;26.10;20.90
3256;DHT22;1640;48.504;9.224;2023-08-20T08:29:26;26.20;23.60
3256;DHT22;1640;48.504;9.224;2023-08-20T08:31:54;26.30;24.60
3256;DHT22;1640;48.504;9.224;2023-08-20T08:34:21;26.60;24.40
3256;DHT22;1640;48.504;9.224;2023-08-20T08:36:49;26.70;29.80
3256;DHT22;1640;48.504;9.224;2023-08-20T08:39:16;26.80;31.90
3256;DHT22;1640;48.504;9.224;2023-08-20T08:44:15;26.90;32.80
3256;DHT22;1640;48.504;9.224;2023-08-20T08:46:43;26.90;34.30
3256;DHT22;1640;48.504;9.224;2023-08-20T08:49:10;27.10;33.80
3256;DHT22;1640;48.504;9.224;2023-08-20T08:51:38;27.10;37.30
3256;DHT22;1640;48.504;9.224;2023-08-20T08:56:35;27.50;42.20
3256;DHT22;1640;48.504;9.224;2023-08-20T08:59:04;27.70;44.90
3256;DHT22;1640;48.504;9.224;2023-08-20T09:01:32;28.00;49.50
3256;DHT22;1640;48.504;9.224;2023-08-20T09:03:59;28.00;51.00
3256;DHT22;1640;48.504;9.224;2023-08-20T09:06:27;27.90;52.10
3256;DHT22;1640;48.504;9.224;2023-08-20T09:09:11;27.70;49.90
3256;DHT22;1640;48.504;9.224;2023-08-20T09:11:38;27.50;47.40
3256;DHT22;1640;48.504;9.224;2023-08-20T09:14:07;27.50;49.10
3256;DHT22;1640;48.504;9.224;2023-08-20T09:16:35;27.60;48.70
3256;DHT22;1640;48.504;9.224;2023-08-20T09:19:03;27.80;50.50
3256;DHT22;1640;48.504;9.224;2023-08-20T09:21:30;27.90;52.00
3256;DHT22;1640;48.504;9.224;2023-08-20T09:23:58;28.10;51.40
3256;DHT22;1640;48.504;9.224;2023-08-20T09:26:28;28.20;52.00
3256;DHT22;1640;48.504;9.224;2023-08-20T09:28:56;28.30;53.90
3256;DHT22;1640;48.504;9.224;2023-08-20T09:31:37;28.50;57.10
3256;DHT22;1640;48.504;9.224;2023-08-20T09:34:05;28.50;61.30
3256;DHT22;1640;48.504;9.224;2023-08-20T09:36:34;28.50;62.90
3256;DHT22;1640;48.504;9.224;2023-08-20T09:39:03;28.40;61.10
3256;DHT22;1640;48.504;9.224;2023-08-20T09:41:31;28.30;63.60
3256;DHT22;1640;48.504;9.224;2023-08-20T09:44:00;28.30;63.70
3256;DHT22;1640;48.504;9.224;2023-08-20T09:46:31;28.40;65.30
3256;DHT22;1640;48.504;9.224;2023-08-20T09:49:01;28.40;64.90
3256;DHT22;1640;48.504;9.224;2023-08-20T09:51:33;28.40;58.80
3256;DHT22;1640;48.504;9.224;2023-08-20T09:54:06;28.40;63.00
3256;DHT22;1640;48.504;9.224;2023-08-20T09:56:39;28.40;61.70
3256;DHT22;1640;48.504;9.224;2023-08-20T09:59:07;28.60;60.90
3256;DHT22;1640;48.504;9.224;2023-08-20T10:01:38;28.80;63.30
3256;DHT22;1640;48.504;9.224;2023-08-20T10:04:06;28.90;65.70
3256;DHT22;1640;48.504;9.224;2023-08-20T10:06:35;29.10;65.60
3256;DHT22;1640;48.504;9.224;2023-08-20T10:09:04;29.10;64.60
3256;DHT22;1640;48.504;9.224;2023-08-20T10:11:33;29.30;64.90
3256;DHT22;1640;48.504;9.224;2023-08-20T10:14:01;29.40;66.20
3256;DHT22;1640;48.504;9.224;2023-08-20T10:16:28;29.50;68.30
3256;DHT22;1640;48.504;9.224;2023-08-20T10:19:02;29.40;66.50
3256;DHT22;1640;48.504;9.224;2023-08-20T10:21:29;29.30;67.30
3256;DHT22;1640;48.504;9.224;2023-08-20T10:23:57;29.20;66.30
3256;DHT22;1640;48.504;9.224;2023-08-20T10:26:29;29.10;65.50
3256;DHT22;1640;48.504;9.224;2023-08-20T10:31:58;29.20;65.50
3256;DHT22;1640;48.504;9.224;2023-08-20T10:34:33;29.30;65.20
3256;DHT22;1640;48.504;9.224;2023-08-20T10:37:08;29.40;65.00
3256;DHT22;1640;48.504;9.224;2023-08-20T10:39:35;29.60;65.30
3256;DHT22;1640;48.504;9.224;2023-08-20T10:42:21;29.70;66.50
3256;DHT22;1640;48.504;9.224;2023-08-20T10:45:01;29.80;66.70
3256;DHT22;1640;48.504;9.224;2023-08-20T10:47:41;29.90;67.20
3256;DHT22;1640;48.504;9.224;2023-08-20T10:50:11;29.90;67.80
3256;DHT22;1640;48.504;9.224;2023-08-20T10:52:39;29.90;68.20
3256;DHT22;1640;48.504;9.224;2023-08-20T10:55:07;30.00;68.20
3256;DHT22;1640;48.504;9.224;2023-08-20T10:57:36;29.90;68.30
3256;DHT22;1640;48.504;9.224;2023-08-20T11:00:05;29.90;68.20
3256;DHT22;1640;48.504;9.224;2023-08-20T11:02:38;30.10;68.20
3256;DHT22;1640;48.504;9.224;2023-08-20T11:05:18;30.00;68.20
3256;DHT22;1640;48.504;9.224;2023-08-20T11:07:46;29.70;68.50
3256;DHT22;1640;48.504;9.224;2023-08-20T11:10:15;29.70;68.50
3256;DHT22;1640;48.504;9.224;2023-08-20T11:12:45;29.80;68.90
3256;DHT22;1640;48.504;9.224;2023-08-20T11:15:13;30.00;68.30
3256;DHT22;1640;48.504;9.224;2023-08-20T11:17:41;30.20;68.20
3256;DHT22;1640;48.504;9.224;2023-08-20T11:20:10;30.20;68.20
3256;DHT22;1640;48.504;9.224;2023-08-20T11:22:41;30.30;68.00
3256;DHT22;1640;48.504;9.224;2023-08-20T11:25:10;30.50;67.50
3256;DHT22;1640;48.504;9.224;2023-08-20T11:27:41;30.70;66.00
3256;DHT22;1640;48.504;9.224;2023-08-20T11:30:10;30.70;66.60
3256;DHT22;1640;48.504;9.224;2023-08-20T11:32:38;30.90;66.50
3256;DHT22;1640;48.504;9.224;2023-08-20T11:35:07;30.80;66.30
3256;DHT22;1640;48.504;9.224;2023-08-20T11:37:35;30.80;67.20
3256;DHT22;1640;48.504;9.224;2023-08-20T11:40:07;30.80;66.20
3256;DHT22;1640;48.504;9.224;2023-08-20T11:42:35;30.80;65.60
3256;DHT22;1640;48.504;9.224;2023-08-20T11:45:03;30.90;65.20
3256;DHT22;1640;48.504;9.224;2023-08-20T11:47:39;30.90;65.90
3256;DHT22;1640;48.504;9.224;2023-08-20T11:50:07;31.10;65.70
3256;DHT22;1640;48.504;9.224;2023-08-20T11:52:36;31.30;65.70
3256;DHT22;1640;48.504;9.224;2023-08-20T11:55:07;31.40;65.60
3256;DHT22;1640;48.504;9.224;2023-08-20T11:57:36;31.40;65.50
3256;DHT22;1640;48.504;9.224;2023-08-20T12:00:05;31.30;65.90
3256;DHT22;1640;48.504;9.224;2023-08-20T12:02:35;31.20;65.60
3256;DHT22;1640;48.504;9.224;2023-08-20T12:05:03;31.20;66.00
3256;DHT22;1640;48.504;9.224;2023-08-20T12:07:31;31.20;65.50
3256;DHT22;1640;48.504;9.224;2023-08-20T12:10:04;31.20;65.90
3256;DHT22;1640;48.504;9.224;2023-08-20T12:12:47;31.20;64.90
3256;DHT22;1640;48.504;9.224;2023-08-20T12:15:15;31.30;65.00
3256;DHT22;1640;48.504;9.224;2023-08-20T12:17:43;31.30;64.70
3256;DHT22;1640;48.504;9.224;2023-08-20T12:20:11;31.20;65.60
3256;DHT22;1640;48.504;9.224;2023-08-20T12:22:38;31.30;65.00
3256;DHT22;1640;48.504;9.224;2023-08-20T12:25:06;31.40;64.50
3256;DHT22;1640;48.504;9.224;2023-08-20T12:27:34;31.30;64.50
3256;DHT22;1640;48.504;9.224;2023-08-20T12:30:05;31.50;64.60
3256;DHT22;1640;48.504;9.224;2023-08-20T12:32:33;31.50;64.60
3256;DHT22;1640;48.504;9.224;2023-08-20T12:35:00;31.50;64.30
3256;DHT22;1640;48.504;9.224;2023-08-20T12:37:28;31.60;63.90
3256;DHT22;1640;48.504;9.224;2023-08-20T12:39:56;31.60;64.50
3256;DHT22;1640;48.504;9.224;2023-08-20T12:42:24;31.80;64.30
3256;DHT22;1640;48.504;9.224;2023-08-20T12:44:51;31.90;62.90
3256;DHT22;1640;48.504;9.224;2023-08-20T12:47:21;32.00;62.40
3256;DHT22;1640;48.504;9.224;2023-08-20T12:49:48;31.90;62.40
3256;DHT22;1640;48.504;9.224;2023-08-20T12:52:16;32.10;61.60
3256;DHT22;1640;48.504;9.224;2023-08-20T12:54:44;32.10;61.30
3256;DHT22;1640;48.504;9.224;2023-08-20T12:57:11;32.20;61.30
3256;DHT22;1640;48.504;9.224;2023-08-20T12:59:39;32.40;60.90
3256;DHT22;1640;48.504;9.224;2023-08-20T13:02:07;32.40;59.70
3256;DHT22;1640;48.504;9.224;2023-08-20T13:04:37;32.40;59.30
3256;DHT22;1640;48.504;9.224;2023-08-20T13:07:05;32.30;59.90
3256;DHT22;1640;48.504;9.224;2023-08-20T13:09:34;32.10;61.30
3256;DHT22;1640;48.504;9.224;2023-08-20T13:12:02;32.20;61.00
3256;DHT22;1640;48.504;9.224;2023-08-20T13:14:32;32.40;59.70
3256;DHT22;1640;48.504;9.224;2023-08-20T13:17:00;32.30;58.60
3256;DHT22;1640;48.504;9.224;2023-08-20T13:19:28;32.40;57.70
3256;DHT22;1640;48.504;9.224;2023-08-20T13:21:58;32.40;57.40
3256;DHT22;1640;48.504;9.224;2023-08-20T13:24:25;32.50;58.10
3256;DHT22;1640;48.504;9.224;2023-08-20T13:26:53;32.50;57.70
3256;DHT22;1640;48.504;9.224;2023-08-20T13:29:21;32.60;58.10
3256;DHT22;1640;48.504;9.224;2023-08-20T13:31:49;32.80;58.10
3256;DHT22;1640;48.504;9.224;2023-08-20T13:34:16;32.80;58.00
3256;DHT22;1640;48.504;9.224;2023-08-20T13:36:44;32.90;58.50
3256;DHT22;1640;48.504;9.224;2023-08-20T13:39:14;32.90;57.00
3256;DHT22;1640;48.504;9.224;2023-08-20T13:41:45;32.90;58.40
3256;DHT22;1640;48.504;9.224;2023-08-20T13:44:13;33.00;56.60
3256;DHT22;1640;48.504;9.224;2023-08-20T13:46:40;33.10;56.10
3256;DHT22;1640;48.504;9.224;2023-08-20T13:49:08;33.10;54.80
3256;DHT22;1640;48.504;9.224;2023-08-20T13:51:36;32.90;55.80
3256;DHT22;1640;48.504;9.224;2023-08-20T13:54:04;32.90;56.60
3256;DHT22;1640;48.504;9.224;2023-08-20T13:56:33;33.10;55.80
3256;DHT22;1640;48.504;9.224;2023-08-20T13:59:01;33.10;54.40
3256;DHT22;1640;48.504;9.224;2023-08-20T14:01:29;33.00;55.40
3256;DHT22;1640;48.504;9.224;2023-08-20T14:03:56;33.20;53.90
3256;DHT22;1640;48.504;9.224;2023-08-20T14:06:24;33.30;54.80
3256;DHT22;1640;48.504;9.224;2023-08-20T14:08:52;33.30;55.10
3256;DHT22;1640;48.504;9.224;2023-08-20T14:11:19;33.20;55.00
3256;DHT22;1640;48.504;9.224;2023-08-20T14:13:48;33.20;54.20
3256;DHT22;1640;48.504;9.224;2023-08-20T14:16:16;33.20;54.30
3256;DHT22;1640;48.504;9.224;2023-08-20T14:18:44;33.30;55.00
3256;DHT22;1640;48.504;9.224;2023-08-20T14:21:11;33.40;54.40
3256;DHT22;1640;48.504;9.224;2023-08-20T14:23:39;33.20;54.20
3256;DHT22;1640;48.504;9.224;2023-08-20T14:26:07;33.00;54.60
3256;DHT22;1640;48.504;9.224;2023-08-20T14:28:35;33.10;55.10
3256;DHT22;1640;48.504;9.224;2023-08-20T14:31:04;33.10;55.00
3256;DHT22;1640;48.504;9.224;2023-08-20T14:33:32;33.20;54.20
3256;DHT22;1640;48.504;9.224;2023-08-20T14:35:59;33.20;54.30
3256;DHT22;1640;48.504;9.224;2023-08-20T14:38:28;33.30;54.20
3256;DHT22;1640;48.504;9.224;2023-08-20T14:40:59;33.30;54.60
3256;DHT22;1640;48.504;9.224;2023-08-20T14:43:27;33.50;53.70
3256;DHT22;1640;48.504;9.224;2023-08-20T14:45:56;33.70;53.50
3256;DHT22;1640;48.504;9.224;2023-08-20T14:48:26;33.80;52.50
3256;DHT22;1640;48.504;9.224;2023-08-20T14:50:54;33.80;52.30
3256;DHT22;1640;48.504;9.224;2023-08-20T14:53:21;34.30;52.30
3256;DHT22;1640;48.504;9.224;2023-08-20T14:55:49;35.10;49.70
3256;DHT22;1640;48.504;9.224;2023-08-20T15:00:44;36.90;45.20
3256;DHT22;1640;48.504;9.224;2023-08-20T15:03:12;36.90;43.80
3256;DHT22;1640;48.504;9.224;2023-08-20T15:05:41;36.40;44.50
3256;DHT22;1640;48.504;9.224;2023-08-20T15:08:09;35.80;46.00
3256;DHT22;1640;48.504;9.224;2023-08-20T15:10:36;36.00;46.40
3256;DHT22;1640;48.504;9.224;2023-08-20T15:13:04;36.10;46.40
3256;DHT22;1640;48.504;9.224;2023-08-20T15:15:32;36.80;45.20
3256;DHT22;1640;48.504;9.224;2023-08-20T15:17:59;37.50;42.60
3256;DHT22;1640;48.504;9.224;2023-08-20T15:20:27;38.10;41.70
3256;DHT22;1640;48.504;9.224;2023-08-20T15:22:56;38.10;41.30
3256;DHT22;1640;48.504;9.224;2023-08-20T15:25:24;38.30;40.60
3256;DHT22;1640;48.504;9.224;2023-08-20T15:27:51;38.80;40.90
3256;DHT22;1640;48.504;9.224;2023-08-20T15:30:20;38.90;40.60
3256;DHT22;1640;48.504;9.224;2023-08-20T15:32:51;38.60;39.80
3256;DHT22;1640;48.504;9.224;2023-08-20T15:35:18;37.90;41.50
3256;DHT22;1640;48.504;9.224;2023-08-20T15:37:46;37.80;41.40
3256;DHT22;1640;48.504;9.224;2023-08-20T15:40:16;37.50;42.60
3256;DHT22;1640;48.504;9.224;2023-08-20T15:42:44;36.90;43.20
3256;DHT22;1640;48.504;9.224;2023-08-20T15:45:11;36.90;43.30
3256;DHT22;1640;48.504;9.224;2023-08-20T15:47:39;37.30;42.60
3256;DHT22;1640;48.504;9.224;2023-08-20T15:50:07;37.30;42.30
3256;DHT22;1640;48.504;9.224;2023-08-20T15:52:35;37.40;42.50
3256;DHT22;1640;48.504;9.224;2023-08-20T15:55:03;37.30;42.80
3256;DHT22;1640;48.504;9.224;2023-08-20T15:57:32;37.30;42.80
3256;DHT22;1640;48.504;9.224;2023-08-20T16:00:00;37.30;42.80
3256;DHT22;1640;48.504;9.224;2023-08-20T16:02:29;37.50;41.80
3256;DHT22;1640;48.504;9.224;2023-08-20T16:04:56;37.60;41.80
3256;DHT22;1640;48.504;9.224;2023-08-20T16:07:24;37.40;42.10
3256;DHT22;1640;48.504;9.224;2023-08-20T16:09:52;37.10;42.60
3256;DHT22;1640;48.504;9.224;2023-08-20T16:12:19;36.30;44.20
3256;DHT22;1640;48.504;9.224;2023-08-20T16:14:48;35.40;46.40
3256;DHT22;1640;48.504;9.224;2023-08-20T16:17:16;34.70;48.20
3256;DHT22;1640;48.504;9.224;2023-08-20T16:19:44;34.20;50.20
3256;DHT22;1640;48.504;9.224;2023-08-20T16:22:11;33.80;51.40